createdAt,value
2017-11-30T00:02:00.059Z,-5.00
2017-11-30T00:04:29.115Z,-4.90
2017-11-30T00:06:57.436Z,-4.90
2017-11-30T00:09:25.725Z,-4.90
2017-11-30T00:11:54.016Z,-4.90
2017-11-30T00:14:24.931Z,-4.90
2017-11-30T00:16:53.337Z,-5.00
2017-11-30T00:19:21.630Z,-4.90
2017-11-30T00:21:49.907Z,-5.00
2017-11-30T00:24:18.195Z,-5.10
2017-11-30T00:26:46.526Z,-5.00
2017-11-30T00:29:14.831Z,-5.00
2017-11-30T00:31:43.883Z,-5.10
2017-11-30T00:34:12.160Z,-5.10
2017-11-30T00:36:40.447Z,-5.00
2017-11-30T00:39:08.770Z,-5.00
2017-11-30T00:41:37.073Z,-5.00
2017-11-30T00:44:16.968Z,-5.00
2017-11-30T00:46:45.259Z,-4.90
2017-11-30T00:49:13.556Z,-4.80
2017-11-30T00:51:41.845Z,-5.00
2017-11-30T00:54:10.143Z,-5.00
2017-11-30T00:56:38.476Z,-5.00
2017-11-30T00:59:06.767Z,-5.00
2017-11-30T01:01:35.051Z,-5.10
2017-11-30T01:04:03.341Z,-5.10
2017-11-30T01:06:31.645Z,-5.20
2017-11-30T01:09:00.729Z,-5.20
2017-11-30T01:11:29.031Z,-5.20
2017-11-30T01:13:58.099Z,-5.20
2017-11-30T01:16:26.379Z,-5.20
2017-11-30T01:18:54.689Z,-5.20
2017-11-30T01:21:26.353Z,-5.30
2017-11-30T01:23:54.733Z,-5.30
2017-11-30T01:26:23.089Z,-5.40
2017-11-30T01:28:51.413Z,-5.40
2017-11-30T01:31:19.774Z,-5.40
2017-11-30T01:33:48.148Z,-5.40
2017-11-30T01:36:17.272Z,-5.60
2017-11-30T01:38:45.617Z,-5.60
2017-11-30T01:41:13.905Z,-5.60
2017-11-30T01:43:42.192Z,-5.60
2017-11-30T01:46:10.538Z,-5.40
2017-11-30T01:48:38.831Z,-5.50
2017-11-30T01:51:07.144Z,-5.60
2017-11-30T01:53:35.427Z,-5.60
2017-11-30T01:56:03.712Z,-5.60
2017-11-30T01:58:32.038Z,-5.70
2017-11-30T02:01:00.325Z,-5.70
2017-11-30T02:03:28.621Z,-5.70
2017-11-30T02:05:56.910Z,-5.80
2017-11-30T02:08:25.205Z,-5.80
2017-11-30T02:10:54.284Z,-5.90
2017-11-30T02:13:22.580Z,-5.90
2017-11-30T02:15:50.865Z,-5.90
2017-11-30T02:18:19.155Z,-5.90
2017-11-30T02:20:47.444Z,-5.90
2017-11-30T02:23:15.724Z,-5.90
2017-11-30T02:25:44.013Z,-5.90
2017-11-30T02:28:12.332Z,-5.90
2017-11-30T02:30:41.394Z,-5.70
2017-11-30T02:33:09.693Z,-5.70
2017-11-30T02:35:38.004Z,-5.50
2017-11-30T02:38:06.291Z,-5.40
2017-11-30T02:40:34.640Z,-5.30
2017-11-30T02:43:02.938Z,-5.30
2017-11-30T02:45:31.252Z,-5.20
2017-11-30T02:47:59.554Z,-5.20
2017-11-30T02:50:27.837Z,-5.30
2017-11-30T02:52:56.127Z,-5.20
2017-11-30T02:55:24.413Z,-5.20
2017-11-30T02:57:52.733Z,-5.20
2017-11-30T03:00:21.795Z,-5.00
2017-11-30T03:02:50.085Z,-5.10
2017-11-30T03:05:18.371Z,-5.10
2017-11-30T03:07:46.660Z,-5.20
2017-11-30T03:10:14.999Z,-5.10
2017-11-30T03:12:44.050Z,-5.40
2017-11-30T03:15:12.353Z,-5.40
2017-11-30T03:17:40.638Z,-5.40
2017-11-30T03:20:08.925Z,-5.40
2017-11-30T03:22:37.253Z,-5.50
2017-11-30T03:25:06.317Z,-5.50
2017-11-30T03:27:34.603Z,-5.60
2017-11-30T03:30:03.836Z,-5.50
2017-11-30T03:32:32.124Z,-5.40
2017-11-30T03:35:00.449Z,-5.40
2017-11-30T03:37:28.744Z,-5.30
2017-11-30T03:39:57.044Z,-5.10
2017-11-30T03:42:25.339Z,-5.20
2017-11-30T03:44:53.631Z,-5.10
2017-11-30T03:47:21.960Z,-5.10
2017-11-30T03:49:50.248Z,-4.90
2017-11-30T03:52:18.544Z,-4.70
2017-11-30T03:54:46.835Z,-4.70
2017-11-30T03:57:15.929Z,-4.50
2017-11-30T03:59:44.252Z,-4.50
2017-11-30T04:02:13.301Z,-4.30
2017-11-30T04:04:42.381Z,-4.20
2017-11-30T04:07:10.685Z,-4.20
2017-11-30T04:09:38.981Z,-4.00
2017-11-30T04:12:07.306Z,-4.00
2017-11-30T04:14:35.632Z,-3.90
2017-11-30T04:17:04.680Z,-3.50
2017-11-30T04:19:32.989Z,-3.60
2017-11-30T04:22:01.285Z,-3.40
2017-11-30T04:24:30.371Z,-3.40
2017-11-30T04:26:58.664Z,-3.40
2017-11-30T04:29:26.956Z,-3.20
2017-11-30T04:31:55.272Z,-3.20
2017-11-30T04:34:24.328Z,-3.20
2017-11-30T04:36:52.672Z,-3.20
2017-11-30T04:39:21.743Z,-3.10
2017-11-30T04:41:50.044Z,-3.10
2017-11-30T04:44:19.116Z,-3.00
2017-11-30T04:46:47.443Z,-3.10
2017-11-30T04:49:15.752Z,-3.00
2017-11-30T04:51:44.816Z,-3.10
2017-11-30T04:54:13.119Z,-3.10
2017-11-30T04:56:41.421Z,-3.00
2017-11-30T04:59:09.751Z,-3.00
2017-11-30T05:01:38.059Z,-3.00
2017-11-30T05:04:06.364Z,-3.00
2017-11-30T05:06:34.685Z,-3.00
2017-11-30T05:09:02.987Z,-2.90
2017-11-30T05:11:31.326Z,-2.80
2017-11-30T05:13:59.628Z,-2.80
2017-11-30T05:16:27.919Z,-2.80
2017-11-30T05:18:56.215Z,-2.80
2017-11-30T05:21:24.642Z,-2.90
2017-11-30T05:23:52.932Z,-2.80
2017-11-30T05:26:21.227Z,-2.80
2017-11-30T05:28:49.532Z,-2.80
2017-11-30T05:31:17.824Z,-2.90
2017-11-30T05:33:46.165Z,-2.80
2017-11-30T05:36:15.225Z,-2.80
2017-11-30T05:38:43.529Z,-2.80
2017-11-30T05:41:11.821Z,-2.80
2017-11-30T05:43:40.129Z,-2.80
2017-11-30T05:46:08.444Z,-2.80
2017-11-30T05:48:36.779Z,-2.80
2017-11-30T05:51:05.072Z,-2.90
2017-11-30T05:53:33.362Z,-2.80
2017-11-30T05:56:01.655Z,-2.80
2017-11-30T05:58:29.952Z,-2.80
2017-11-30T06:00:58.270Z,-2.90
2017-11-30T06:03:27.335Z,-2.90
2017-11-30T06:05:55.638Z,-2.90
2017-11-30T06:08:23.936Z,-2.80
2017-11-30T06:10:52.248Z,-2.70
2017-11-30T06:13:20.578Z,-2.70
2017-11-30T06:15:48.872Z,-2.80
2017-11-30T06:18:17.164Z,-2.90
2017-11-30T06:20:45.450Z,-3.00
2017-11-30T06:23:13.745Z,-3.00
2017-11-30T06:25:42.053Z,-3.00
2017-11-30T06:28:10.371Z,-3.00
2017-11-30T06:30:39.584Z,-3.00
2017-11-30T06:33:08.671Z,-3.00
2017-11-30T06:35:36.962Z,-3.00
2017-11-30T06:38:05.264Z,-2.80
2017-11-30T06:40:34.322Z,-2.90
2017-11-30T06:43:02.621Z,-3.00
2017-11-30T06:45:30.958Z,-3.10
2017-11-30T06:47:59.253Z,-3.10
2017-11-30T06:50:27.555Z,-3.10
2017-11-30T06:52:55.853Z,-3.10
2017-11-30T06:55:24.159Z,-3.20
2017-11-30T06:57:52.453Z,-3.30
2017-11-30T07:00:20.788Z,-3.20
2017-11-30T07:02:49.855Z,-3.00
2017-11-30T07:05:18.142Z,-3.00
2017-11-30T07:07:46.445Z,-3.00
2017-11-30T07:10:14.800Z,-3.00
2017-11-30T07:12:43.123Z,-2.90
2017-11-30T07:15:11.437Z,-2.90
2017-11-30T07:17:40.488Z,-2.90
2017-11-30T07:20:08.788Z,-2.90
2017-11-30T07:22:37.083Z,-2.60
2017-11-30T07:25:05.392Z,-2.60
2017-11-30T07:27:34.477Z,-2.70
2017-11-30T07:30:02.833Z,-2.70
2017-11-30T07:32:31.129Z,-2.70
2017-11-30T07:34:59.453Z,-2.80
2017-11-30T07:37:27.773Z,-2.80
2017-11-30T07:39:56.841Z,-2.90
2017-11-30T07:42:25.140Z,-3.00
2017-11-30T07:44:53.437Z,-2.90
2017-11-30T07:47:21.764Z,-2.80
2017-11-30T07:49:50.088Z,-2.70
2017-11-30T07:52:18.394Z,-2.70
2017-11-30T07:54:46.694Z,-2.60
2017-11-30T07:57:14.984Z,-2.60
2017-11-30T07:59:43.281Z,-2.60
2017-11-30T08:02:12.368Z,-2.40
2017-11-30T08:04:40.672Z,-2.50
2017-11-30T08:07:08.967Z,-2.40
2017-11-30T08:09:38.032Z,-2.20
2017-11-30T08:12:06.352Z,-2.30
2017-11-30T08:14:34.684Z,-2.10
2017-11-30T08:17:02.983Z,-2.00
2017-11-30T08:19:31.284Z,-1.90
2017-11-30T08:21:59.580Z,-1.80
2017-11-30T08:24:27.889Z,-1.60
2017-11-30T08:26:56.216Z,-1.50
2017-11-30T08:29:24.525Z,-1.40
2017-11-30T08:31:52.838Z,-1.40
2017-11-30T08:34:21.129Z,-1.30
2017-11-30T08:36:49.440Z,-1.30
2017-11-30T08:39:17.737Z,-1.20
2017-11-30T08:41:46.036Z,-1.20
2017-11-30T08:44:15.123Z,-1.10
2017-11-30T08:46:44.197Z,-1.10
2017-11-30T08:49:12.498Z,-1.10
2017-11-30T08:51:40.824Z,-1.00
2017-11-30T08:54:09.884Z,-0.70
2017-11-30T08:56:38.181Z,-0.70
2017-11-30T08:59:06.491Z,-0.50
2017-11-30T09:01:35.733Z,-0.50
2017-11-30T09:04:04.849Z,-0.60
2017-11-30T09:06:33.160Z,-0.60
2017-11-30T09:09:01.500Z,-0.50
2017-11-30T09:11:29.796Z,-0.50
2017-11-30T09:13:58.852Z,-0.50
2017-11-30T09:16:27.277Z,-0.50
2017-11-30T09:18:55.588Z,-0.40
2017-11-30T09:21:24.643Z,-0.40
2017-11-30T09:23:52.953Z,-0.40
2017-11-30T09:26:21.260Z,-0.50
2017-11-30T09:28:49.590Z,-0.50
2017-11-30T09:31:17.890Z,-0.50
2017-11-30T09:33:46.189Z,-0.60
2017-11-30T09:36:14.487Z,-0.60
2017-11-30T09:38:42.771Z,-0.70
2017-11-30T09:41:11.121Z,-0.80
2017-11-30T09:43:40.176Z,-0.90
2017-11-30T09:46:08.480Z,-1.00
2017-11-30T09:48:36.764Z,-1.00
2017-11-30T09:51:05.064Z,-1.00
2017-11-30T09:53:33.400Z,-1.00
2017-11-30T09:56:01.731Z,-1.00
2017-11-30T09:58:30.036Z,-0.90
2017-11-30T10:00:58.328Z,-0.80
2017-11-30T10:03:27.392Z,-0.80
2017-11-30T10:05:55.718Z,-0.80
2017-11-30T10:08:24.008Z,-0.70
2017-11-30T10:10:52.307Z,-0.70
2017-11-30T10:13:22.167Z,-0.40
2017-11-30T10:15:50.704Z,-0.50
2017-11-30T10:18:19.408Z,-0.30
2017-11-30T10:20:48.019Z,-0.20
2017-11-30T10:23:16.696Z,-0.10
2017-11-30T10:25:46.455Z,-0.10
2017-11-30T10:28:14.992Z,-0.10
2017-11-30T10:30:43.663Z,0.00
2017-11-30T10:33:12.319Z,0.00
2017-11-30T10:35:40.969Z,0.00
2017-11-30T10:38:10.417Z,0.10
2017-11-30T10:40:39.081Z,0.10
2017-11-30T10:43:07.855Z,0.10
2017-11-30T10:45:37.305Z,0.00
2017-11-30T10:48:08.119Z,0.00
2017-11-30T10:50:37.933Z,0.10
2017-11-30T10:53:07.366Z,0.10
2017-11-30T10:55:38.372Z,0.00
2017-11-30T10:58:07.702Z,0.10
2017-11-30T11:00:36.393Z,0.10
2017-11-30T11:03:05.010Z,0.20
2017-11-30T11:05:34.673Z,0.30
2017-11-30T11:08:06.841Z,0.40
2017-11-30T11:10:35.558Z,0.40
2017-11-30T11:13:03.988Z,0.50
2017-11-30T11:15:32.274Z,0.60
2017-11-30T11:18:00.800Z,0.60
2017-11-30T11:20:29.351Z,0.50
2017-11-30T11:22:58.031Z,0.50
2017-11-30T11:25:26.829Z,0.40
2017-11-30T11:27:55.420Z,0.50
2017-11-30T11:30:24.166Z,0.30
2017-11-30T11:32:52.679Z,0.30
2017-11-30T11:35:21.224Z,0.30
2017-11-30T11:37:49.924Z,0.40
2017-11-30T11:40:19.042Z,0.40
2017-11-30T11:42:47.701Z,0.40
2017-11-30T11:45:16.427Z,0.50
2017-11-30T11:47:45.139Z,0.40
2017-11-30T11:50:13.491Z,0.50
2017-11-30T11:52:42.001Z,0.50
2017-11-30T11:55:10.735Z,0.50
2017-11-30T11:57:39.370Z,0.40
2017-11-30T12:00:07.872Z,0.30
2017-11-30T12:02:36.962Z,0.20
2017-11-30T12:05:05.553Z,0.30
2017-11-30T12:07:34.866Z,0.30
2017-11-30T12:10:03.415Z,0.30
2017-11-30T12:12:32.065Z,0.30
2017-11-30T12:15:01.667Z,0.40
2017-11-30T12:17:31.081Z,0.50
2017-11-30T12:19:59.665Z,0.40
2017-11-30T12:22:28.247Z,0.40
2017-11-30T12:24:56.949Z,0.50
2017-11-30T12:27:25.589Z,0.60
2017-11-30T12:29:56.709Z,0.50
2017-11-30T12:32:25.480Z,0.50
2017-11-30T12:34:53.876Z,0.50
2017-11-30T12:37:22.330Z,0.50
2017-11-30T12:39:50.923Z,0.50
2017-11-30T12:42:19.596Z,0.60
2017-11-30T12:44:48.126Z,0.60
2017-11-30T12:47:16.433Z,0.60
2017-11-30T12:49:44.737Z,0.50
2017-11-30T12:52:13.033Z,0.50
2017-11-30T12:54:41.319Z,0.50
2017-11-30T12:57:09.640Z,0.50
2017-11-30T12:59:38.696Z,0.60
2017-11-30T13:02:07.323Z,0.60
2017-11-30T13:04:36.406Z,0.70
2017-11-30T13:07:04.682Z,0.70
2017-11-30T13:09:32.978Z,0.70
2017-11-30T13:12:01.285Z,0.70
2017-11-30T13:14:29.698Z,0.70
2017-11-30T13:16:58.051Z,0.60
2017-11-30T13:19:26.345Z,0.60
2017-11-30T13:21:54.658Z,0.50
2017-11-30T13:24:22.952Z,0.60
2017-11-30T13:26:52.004Z,0.60
2017-11-30T13:29:20.318Z,0.60
2017-11-30T13:31:48.609Z,0.60
2017-11-30T13:34:16.901Z,0.60
2017-11-30T13:36:45.179Z,0.70
2017-11-30T13:39:13.470Z,0.70
2017-11-30T13:41:41.782Z,0.70
2017-11-30T13:44:10.070Z,0.60
2017-11-30T13:46:38.358Z,0.60
2017-11-30T13:49:06.655Z,0.60
2017-11-30T13:51:34.944Z,0.70
2017-11-30T13:54:03.248Z,0.70
2017-11-30T13:56:32.300Z,0.70
2017-11-30T13:59:00.575Z,0.70
2017-11-30T14:01:28.854Z,0.70
2017-11-30T14:03:57.127Z,0.80
2017-11-30T14:06:25.434Z,0.70
2017-11-30T14:08:53.716Z,0.70
2017-11-30T14:11:21.990Z,0.70
2017-11-30T14:13:50.283Z,0.70
2017-11-30T14:16:18.578Z,0.70
2017-11-30T14:18:46.974Z,0.60
2017-11-30T14:21:15.258Z,0.60
2017-11-30T14:23:43.543Z,0.60
2017-11-30T14:26:12.579Z,0.60
2017-11-30T14:28:41.020Z,0.50
2017-11-30T14:31:09.934Z,0.50
2017-11-30T14:33:39.394Z,0.50
2017-11-30T14:36:08.068Z,0.50
2017-11-30T14:38:39.570Z,0.40
2017-11-30T14:41:09.918Z,0.40
2017-11-30T14:43:40.189Z,0.30
2017-11-30T14:46:08.818Z,0.30
2017-11-30T14:48:38.262Z,0.30
2017-11-30T14:51:06.860Z,0.30
2017-11-30T14:53:35.779Z,0.40
2017-11-30T14:56:04.498Z,0.30
2017-11-30T14:58:33.172Z,0.30
2017-11-30T15:01:02.750Z,0.30
2017-11-30T15:03:31.119Z,0.30
2017-11-30T15:05:59.398Z,0.30
2017-11-30T15:08:27.713Z,0.20
2017-11-30T15:10:55.998Z,0.20
2017-11-30T15:13:24.334Z,0.20
2017-11-30T15:15:52.609Z,0.20
2017-11-30T15:18:20.883Z,0.20
2017-11-30T15:20:49.204Z,0.20
2017-11-30T15:23:17.496Z,0.20
2017-11-30T15:25:45.798Z,0.10
2017-11-30T15:28:15.682Z,0.10
2017-11-30T15:30:43.994Z,0.10
2017-11-30T15:33:12.268Z,0.00
2017-11-30T15:35:40.557Z,0.00
2017-11-30T15:38:08.872Z,-0.10
2017-11-30T15:40:37.926Z,0.00
2017-11-30T15:43:06.215Z,0.00
2017-11-30T15:45:34.511Z,0.00
2017-11-30T15:48:02.827Z,0.00
2017-11-30T15:50:31.135Z,0.00
2017-11-30T15:53:00.174Z,0.00
2017-11-30T15:55:28.458Z,0.00
2017-11-30T15:57:56.752Z,0.00
2017-11-30T16:00:25.051Z,0.00
2017-11-30T16:02:53.379Z,-0.10
2017-11-30T16:05:21.900Z,0.00
2017-11-30T16:07:50.534Z,0.00
2017-11-30T16:10:18.942Z,0.00
2017-11-30T16:12:47.226Z,0.00
2017-11-30T16:15:15.512Z,0.00
2017-11-30T16:17:43.970Z,0.00
2017-11-30T16:20:12.363Z,0.00
2017-11-30T16:22:40.652Z,0.00
2017-11-30T16:25:08.960Z,0.00
2017-11-30T16:27:37.243Z,0.10
2017-11-30T16:30:05.547Z,0.00
2017-11-30T16:32:33.831Z,0.10
2017-11-30T16:35:02.372Z,0.10
2017-11-30T16:37:30.735Z,0.00
2017-11-30T16:39:59.015Z,0.00
2017-11-30T16:42:27.315Z,0.00
2017-11-30T16:44:55.587Z,0.00
2017-11-30T16:47:23.905Z,-0.10
2017-11-30T16:49:53.025Z,-0.10
2017-11-30T16:52:21.739Z,-0.10
2017-11-30T16:54:50.536Z,0.00
2017-11-30T16:57:19.703Z,0.00
2017-11-30T16:59:48.364Z,0.00
2017-11-30T17:02:20.351Z,0.00
2017-11-30T17:04:54.575Z,0.00
2017-11-30T17:07:24.930Z,-0.10
2017-11-30T17:09:55.614Z,0.00
2017-11-30T17:12:25.422Z,0.00
2017-11-30T17:15:03.952Z,0.00
2017-11-30T17:17:34.711Z,0.00
2017-11-30T17:20:05.747Z,-0.10
2017-11-30T17:22:34.395Z,-0.10
2017-11-30T17:25:04.781Z,-0.10
2017-11-30T17:27:36.170Z,-0.10
2017-11-30T17:30:07.592Z,-0.10
2017-11-30T17:32:36.076Z,-0.10
2017-11-30T17:35:04.543Z,-0.10
2017-11-30T17:37:32.856Z,-0.10
2017-11-30T17:40:01.379Z,-0.10
2017-11-30T17:42:32.350Z,-0.10
2017-11-30T17:45:01.150Z,-0.10
2017-11-30T17:47:30.632Z,-0.10
2017-11-30T17:49:59.380Z,-0.10
2017-11-30T17:52:29.190Z,-0.10
2017-11-30T17:54:58.931Z,0.00
2017-11-30T17:57:33.299Z,-0.10
2017-11-30T18:00:02.794Z,-0.10
2017-11-30T18:02:36.122Z,-0.10
2017-11-30T18:05:05.683Z,-0.10
2017-11-30T18:07:38.244Z,-0.10
2017-11-30T18:10:10.937Z,-0.10
2017-11-30T18:12:42.327Z,-0.20
2017-11-30T18:15:14.428Z,-0.20
2017-11-30T18:17:44.064Z,-0.20
2017-11-30T18:20:13.224Z,-0.10
2017-11-30T18:22:43.382Z,-0.10
2017-11-30T18:25:13.220Z,-0.20
2017-11-30T18:27:42.093Z,-0.10
2017-11-30T18:30:11.693Z,-0.10
2017-11-30T18:32:40.430Z,-0.10
2017-11-30T18:35:13.639Z,-0.20
2017-11-30T18:37:47.766Z,-0.20
2017-11-30T18:40:18.097Z,-0.20
2017-11-30T18:42:47.601Z,-0.20
2017-11-30T18:45:16.402Z,-0.20
2017-11-30T18:47:45.371Z,-0.10
2017-11-30T18:50:14.930Z,-0.10
2017-11-30T18:52:45.458Z,0.00
2017-11-30T18:55:14.515Z,-0.10
2017-11-30T18:57:44.974Z,0.00
2017-11-30T19:00:16.528Z,-0.10
2017-11-30T19:02:45.872Z,-0.10
2017-11-30T19:05:15.321Z,-0.10
2017-11-30T19:07:44.585Z,-0.10
2017-11-30T19:10:13.932Z,-0.10
2017-11-30T19:12:43.011Z,-0.10
2017-11-30T19:15:11.302Z,-0.20
2017-11-30T19:17:39.593Z,-0.10
2017-11-30T19:20:07.879Z,-0.20
2017-11-30T19:22:36.224Z,-0.20
2017-11-30T19:25:07.622Z,-0.20
2017-11-30T19:27:37.676Z,-0.20
2017-11-30T19:30:07.360Z,-0.20
2017-11-30T19:32:37.941Z,-0.20
2017-11-30T19:35:08.141Z,-0.10
2017-11-30T19:37:38.913Z,-0.10
2017-11-30T19:40:11.198Z,-0.20
2017-11-30T19:42:40.823Z,-0.20
2017-11-30T19:45:10.608Z,-0.20
2017-11-30T19:47:41.205Z,-0.20
2017-11-30T19:50:14.330Z,-0.20
2017-11-30T19:52:45.602Z,-0.10
2017-11-30T19:55:23.070Z,-0.20
2017-11-30T19:57:59.279Z,-0.20
2017-11-30T20:00:30.942Z,-0.20
2017-11-30T20:03:04.905Z,-0.20
2017-11-30T20:08:15.963Z,-0.20
2017-11-30T20:10:50.687Z,-0.20
2017-11-30T20:13:24.038Z,-0.20
2017-11-30T20:16:00.528Z,-0.20
2017-11-30T20:18:33.051Z,-0.20
2017-11-30T20:21:11.570Z,-0.20
2017-11-30T20:23:44.151Z,-0.20
2017-11-30T20:31:36.723Z,-0.30
2017-11-30T20:34:09.156Z,-0.30
2017-11-30T20:36:47.228Z,-0.30
2017-11-30T20:39:22.186Z,-0.40
2017-11-30T20:41:58.059Z,-0.30
2017-11-30T20:44:30.997Z,-0.40
2017-11-30T20:47:04.494Z,-0.30
2017-11-30T20:49:52.978Z,-0.40
2017-11-30T20:52:21.507Z,-0.40
2017-11-30T20:54:50.915Z,-0.50
2017-11-30T20:57:19.977Z,-0.60
2017-11-30T20:59:48.417Z,-0.60
2017-11-30T21:02:21.899Z,-0.70
2017-11-30T21:04:52.604Z,-0.70
2017-11-30T21:07:21.953Z,-0.90
2017-11-30T21:09:50.437Z,-0.90
2017-11-30T21:15:11.969Z,-1.00
2017-11-30T21:17:42.564Z,-1.20
2017-11-30T21:20:15.725Z,-1.30
2017-11-30T21:22:46.467Z,-1.40
2017-11-30T21:25:20.384Z,-1.70
2017-11-30T21:27:53.542Z,-1.70
2017-11-30T21:30:25.529Z,-1.90
2017-11-30T21:35:34.300Z,-2.30
2017-11-30T21:38:15.541Z,-2.40
2017-11-30T21:40:46.862Z,-2.70
2017-11-30T21:43:18.248Z,-2.90
2017-11-30T21:45:52.710Z,-3.00
2017-11-30T21:48:24.699Z,-3.10
2017-11-30T21:50:59.370Z,-3.30
2017-11-30T21:53:32.301Z,-3.40
2017-11-30T21:56:05.983Z,-3.60
2017-11-30T21:58:35.938Z,-3.70
2017-11-30T22:01:13.905Z,-3.80
2017-11-30T22:03:44.062Z,-3.90
2017-11-30T22:06:21.549Z,-4.00
2017-11-30T22:08:53.803Z,-4.00
2017-11-30T22:11:23.461Z,-4.10
2017-11-30T22:14:00.708Z,-4.40
2017-11-30T22:16:33.814Z,-4.40
2017-11-30T22:19:04.154Z,-4.50
2017-11-30T22:21:32.446Z,-4.50
2017-11-30T22:24:00.800Z,-4.40
2017-11-30T22:26:29.089Z,-4.30
2017-11-30T22:28:57.366Z,-4.20
2017-11-30T22:31:25.686Z,-4.20
2017-11-30T22:33:53.976Z,-4.20
2017-11-30T22:36:22.280Z,-4.20
2017-11-30T22:38:50.562Z,-4.10
2017-11-30T22:41:18.852Z,-4.00
2017-11-30T22:43:47.187Z,-3.90
2017-11-30T22:46:16.230Z,-3.90
2017-11-30T22:48:44.555Z,-3.90
2017-11-30T22:51:12.851Z,-3.80
2017-11-30T22:53:41.142Z,-3.80
2017-11-30T22:56:09.428Z,-3.70
2017-11-30T22:58:37.910Z,-3.70
2017-11-30T23:01:06.215Z,-3.70
2017-11-30T23:03:34.504Z,-3.60
2017-11-30T23:06:02.798Z,-3.40
2017-11-30T23:08:31.855Z,-3.40
2017-11-30T23:11:00.162Z,-3.40
2017-11-30T23:13:28.455Z,-3.40
2017-11-30T23:15:56.741Z,-3.30
2017-11-30T23:18:25.040Z,-3.30
2017-11-30T23:20:53.325Z,-3.40
2017-11-30T23:23:22.394Z,-3.40
2017-11-30T23:25:50.678Z,-3.40
2017-11-30T23:28:19.002Z,-3.50
2017-11-30T23:30:47.298Z,-3.50
2017-11-30T23:33:15.575Z,-3.50
2017-11-30T23:35:43.871Z,-3.50
2017-11-30T23:38:12.163Z,-3.50
2017-11-30T23:40:40.602Z,-3.50
2017-11-30T23:43:09.647Z,-3.50
2017-11-30T23:45:37.945Z,-3.50
2017-11-30T23:48:06.235Z,-3.40
2017-11-30T23:50:34.525Z,-3.40
2017-11-30T23:53:02.845Z,-3.20
2017-11-30T23:55:31.919Z,-3.10
2017-11-30T23:58:00.206Z,-3.20
